Time;durP1;ratioP1;P1;durP2;ratioP2;P2;SDS_P1;SDS_P2;PMS_P1;PMS_P2;Temp;Humidity;BMP_temperature;BMP_pressure;BME280_temperature;BME280_humidity;BME280_pressure;Samples;Min_cycle;Max_cycle;Signal;HPM_P1;HPM_P2
2023/07/16 00:01:48;;;;;;;4.60;2.30;;;19.00;99.90;;;;;;5056517;28;20255;-52
2023/07/16 00:04:15;;;;;;;2.00;1.50;;;19.10;99.90;;;;;;5083804;28;20186;-51
2023/07/16 00:06:42;;;;;;;1.20;1.10;;;19.20;99.90;;;;;;5075277;28;20950;-48
2023/07/16 00:09:09;;;;;;;4.10;1.63;;;18.90;99.90;;;;;;5079467;28;20224;-52
2023/07/16 00:11:37;;;;;;;1.70;1.40;;;18.70;99.90;;;;;;5081150;28;20194;-48
2023/07/16 00:14:04;;;;;;;2.17;1.30;;;18.80;99.90;;;;;;5079138;28;20254;-47
2023/07/16 00:16:31;;;;;;;3.17;1.60;;;18.80;99.90;;;;;;5062800;28;20218;-54
2023/07/16 00:18:58;;;;;;;3.20;1.53;;;18.70;99.90;;;;;;5076039;28;20210;-53
2023/07/16 00:21:25;;;;;;;3.10;1.57;;;18.60;99.90;;;;;;5081562;28;20625;-52
2023/07/16 00:23:52;;;;;;;4.50;1.60;;;18.60;99.90;;;;;;5079766;28;20265;-47
2023/07/16 00:26:19;;;;;;;1.97;1.70;;;18.80;99.90;;;;;;5083361;28;20719;-51
2023/07/16 00:28:47;;;;;;;3.60;1.40;;;18.70;99.90;;;;;;5080227;28;20186;-51
2023/07/16 00:31:14;;;;;;;2.93;1.57;;;18.70;99.90;;;;;;5056544;28;20232;-50
2023/07/16 00:33:41;;;;;;;3.93;2.13;;;18.60;99.90;;;;;;5079583;28;20198;-53
2023/07/16 00:36:07;;;;;;;2.57;1.60;;;18.50;99.90;;;;;;5080456;28;20243;-54
2023/07/16 00:38:35;;;;;;;2.97;1.47;;;18.50;99.90;;;;;;5080115;28;20281;-52
2023/07/16 00:41:02;;;;;;;3.00;1.80;;;18.60;99.90;;;;;;5078830;28;20244;-54
2023/07/16 00:43:30;;;;;;;3.97;1.80;;;18.60;99.90;;;;;;5074224;28;20201;-52
2023/07/16 00:45:59;;;;;;;3.07;1.70;;;18.60;99.90;;;;;;5078813;28;21032;-50
2023/07/16 00:48:26;;;;;;;2.77;1.80;;;18.60;99.90;;;;;;5062964;28;20271;-51
2023/07/16 00:50:54;;;;;;;3.60;1.70;;;18.60;99.90;;;;;;5072921;28;20174;-49
2023/07/16 00:53:21;;;;;;;3.77;1.97;;;18.60;99.90;;;;;;5083322;28;20250;-49
2023/07/16 00:55:48;;;;;;;2.70;1.63;;;18.50;99.90;;;;;;5071747;28;20271;-52
2023/07/16 00:58:15;;;;;;;2.40;1.50;;;18.60;99.90;;;;;;5083075;28;20194;-53
2023/07/16 01:00:42;;;;;;;2.57;2.10;;;18.60;99.90;;;;;;5078706;28;20618;-53
2023/07/16 01:03:14;;;;;;;3.10;1.80;;;18.60;99.90;;;;;;5059769;28;20255;-53
2023/07/16 01:05:48;;;;;;;2.27;2.07;;;18.50;99.90;;;;;;5077821;28;20214;-53
2023/07/16 01:08:21;;;;;;;2.67;2.47;;;18.60;99.90;;;;;;5076267;28;20224;-49
2023/07/16 01:10:48;;;;;;;4.87;2.10;;;18.60;99.90;;;;;;5077987;28;20190;-52
2023/07/16 01:13:16;;;;;;;3.33;1.87;;;18.60;99.90;;;;;;5081771;28;20279;-52
2023/07/16 01:15:43;;;;;;;4.43;1.70;;;18.40;99.90;;;;;;5078892;28;20217;-51
2023/07/16 01:18:11;;;;;;;3.20;1.57;;;18.40;99.90;;;;;;5058802;28;20781;-51
2023/07/16 01:20:38;;;;;;;1.70;1.57;;;18.50;99.90;;;;;;5075971;28;20194;-47
2023/07/16 01:23:37;;;;;;;3.77;1.73;;;18.50;99.90;;;;;;5079517;28;20186;-54
2023/07/16 01:26:18;;;;;;;2.43;1.30;;;18.50;99.90;;;;;;5079688;28;20260;-54
2023/07/16 01:29:24;;;;;;;2.57;1.30;;;18.50;99.90;;;;;;5082315;28;20201;-53
2023/07/16 01:31:54;;;;;;;1.87;1.40;;;18.80;99.90;;;;;;5054197;28;20251;-54
2023/07/16 01:34:22;;;;;;;1.33;1.20;;;18.50;99.90;;;;;;5066848;28;20221;-53
2023/07/16 01:36:50;;;;;;;2.63;1.37;;;18.60;99.90;;;;;;5080033;28;20219;-54
2023/07/16 01:39:17;;;;;;;7.23;1.50;;;18.50;99.90;;;;;;5084087;28;20240;-53
2023/07/16 01:41:44;;;;;;;1.97;1.20;;;18.50;99.90;;;;;;5080816;28;20217;-47
2023/07/16 01:44:11;;;;;;;2.70;1.57;;;18.70;99.90;;;;;;5081794;28;20187;-54
2023/07/16 01:46:38;;;;;;;3.80;1.40;;;18.40;99.90;;;;;;5083122;28;20221;-52
2023/07/16 01:49:06;;;;;;;2.40;1.80;;;18.70;99.90;;;;;;5078890;28;20190;-51
2023/07/16 01:51:33;;;;;;;3.47;1.57;;;18.40;99.90;;;;;;5066155;28;20270;-53
2023/07/16 01:54:00;;;;;;;1.97;1.40;;;18.40;99.90;;;;;;5077173;28;21024;-52
2023/07/16 01:56:27;;;;;;;1.73;1.30;;;18.50;99.90;;;;;;5081821;28;20214;-52
2023/07/16 01:58:53;;;;;;;2.47;1.30;;;18.40;99.90;;;;;;5080896;28;20194;-52
2023/07/16 02:01:20;;;;;;;2.37;1.40;;;18.60;99.90;;;;;;5085468;28;20248;-48
2023/07/16 02:03:47;;;;;;;1.23;1.13;;;18.40;99.90;;;;;;5080956;28;20298;-54
2023/07/16 02:06:15;;;;;;;2.97;1.40;;;18.70;99.90;;;;;;5062083;28;20774;-53
2023/07/16 02:08:42;;;;;;;2.63;1.63;;;18.50;99.90;;;;;;5078477;28;20239;-51
2023/07/16 02:11:09;;;;;;;1.93;1.40;;;18.60;99.90;;;;;;5085043;28;20201;-51
2023/07/16 02:13:36;;;;;;;4.10;1.30;;;18.60;99.90;;;;;;5082493;28;20202;-51
2023/07/16 02:16:03;;;;;;;1.77;1.47;;;18.40;99.90;;;;;;5083506;28;20980;-49
2023/07/16 02:18:29;;;;;;;2.47;1.37;;;18.50;99.90;;;;;;5079277;28;20190;-54
2023/07/16 02:20:56;;;;;;;1.60;1.33;;;18.50;99.90;;;;;;5059161;28;20214;-53
2023/07/16 02:23:24;;;;;;;3.10;1.77;;;18.40;99.90;;;;;;5085625;28;20197;-49
2023/07/16 02:25:54;;;;;;;4.33;1.67;;;18.40;99.90;;;;;;5080498;28;20202;-50
2023/07/16 02:28:21;;;;;;;1.53;1.40;;;18.40;99.90;;;;;;5085369;28;20251;-48
2023/07/16 02:30:49;;;;;;;3.07;1.43;;;18.30;99.90;;;;;;5075958;28;20204;-51
2023/07/16 02:33:16;;;;;;;2.27;1.50;;;18.60;99.90;;;;;;5085790;28;20206;-51
2023/07/16 02:35:47;;;;;;;3.67;1.57;;;18.30;99.90;;;;;;5068786;28;20263;-51
2023/07/16 02:38:15;;;;;;;3.40;1.30;;;18.50;99.90;;;;;;5076716;28;20209;-48
2023/07/16 02:40:45;;;;;;;2.27;1.37;;;18.40;99.90;;;;;;5082108;28;20182;-52
2023/07/16 02:43:12;;;;;;;1.43;1.20;;;18.30;99.90;;;;;;5077597;28;20697;-52
2023/07/16 02:45:39;;;;;;;1.43;1.33;;;18.30;99.90;;;;;;5082147;28;20229;-52
2023/07/16 02:48:07;;;;;;;2.07;1.50;;;18.20;99.90;;;;;;5082439;28;20182;-48
2023/07/16 02:50:35;;;;;;;2.47;1.50;;;18.10;99.90;;;;;;5083296;28;20271;-54
2023/07/16 02:53:01;;;;;;;4.27;1.50;;;18.10;99.90;;;;;;5061833;28;20202;-52
2023/07/16 02:55:28;;;;;;;2.13;1.50;;;18.10;99.90;;;;;;5078589;28;20218;-53
2023/07/16 02:57:56;;;;;;;2.53;1.37;;;18.00;99.90;;;;;;5079882;28;20907;-49
2023/07/16 03:00:23;;;;;;;2.53;1.23;;;18.10;99.90;;;;;;5083887;28;20652;-54
2023/07/16 03:02:50;;;;;;;2.83;1.43;;;18.10;99.90;;;;;;5078591;28;20863;-54
2023/07/16 03:05:18;;;;;;;2.10;1.60;;;18.00;99.90;;;;;;5079165;28;20654;-50
2023/07/16 03:07:45;;;;;;;1.47;1.33;;;18.10;99.90;;;;;;5058131;28;20190;-48
2023/07/16 03:10:11;;;;;;;2.83;1.47;;;18.20;99.90;;;;;;5081734;28;20198;-54
2023/07/16 03:12:38;;;;;;;2.33;1.30;;;18.20;99.90;;;;;;5082099;28;20218;-52
2023/07/16 03:15:09;;;;;;;2.27;1.60;;;18.10;99.90;;;;;;5081556;28;20993;-52
2023/07/16 03:17:36;;;;;;;3.37;1.40;;;18.20;99.90;;;;;;5080156;28;20248;-49
2023/07/16 03:20:04;;;;;;;3.17;2.07;;;18.10;99.90;;;;;;5078334;28;20213;-52
2023/07/16 03:22:31;;;;;;;2.60;1.73;;;18.10;99.90;;;;;;5081413;28;20535;-48
2023/07/16 03:24:57;;;;;;;3.57;1.47;;;18.10;99.90;;;;;;5061262;28;20202;-52
2023/07/16 03:27:24;;;;;;;1.90;1.67;;;18.10;99.90;;;;;;5082993;28;20528;-50
2023/07/16 03:29:57;;;;;;;2.60;1.70;;;18.10;99.90;;;;;;5075522;28;20186;-52
2023/07/16 03:32:25;;;;;;;3.97;1.67;;;18.20;99.90;;;;;;5082894;28;20186;-54
2023/07/16 03:34:52;;;;;;;4.67;1.70;;;18.20;99.90;;;;;;5078703;28;20213;-51
2023/07/16 03:37:18;;;;;;;2.80;1.47;;;18.10;99.90;;;;;;5082581;28;20194;-48
2023/07/16 03:39:48;;;;;;;2.57;1.33;;;18.20;99.90;;;;;;5057799;28;20749;-51
2023/07/16 03:42:15;;;;;;;5.67;1.80;;;18.20;99.90;;;;;;5078518;28;20186;-48
2023/07/16 03:44:42;;;;;;;2.80;1.23;;;18.10;99.90;;;;;;5080326;28;20671;-50
2023/07/16 03:47:08;;;;;;;3.17;1.53;;;18.10;99.90;;;;;;5081768;28;20251;-51
2023/07/16 03:49:37;;;;;;;3.10;1.47;;;18.10;99.90;;;;;;5081492;28;20247;-54
2023/07/16 03:52:04;;;;;;;2.80;1.53;;;18.20;99.90;;;;;;5082278;28;20182;-51
2023/07/16 03:54:31;;;;;;;3.90;1.80;;;18.20;99.90;;;;;;5055594;28;20225;-50
2023/07/16 03:56:57;;;;;;;3.67;1.30;;;18.20;99.90;;;;;;5079021;28;20177;-52
2023/07/16 03:59:25;;;;;;;4.10;1.50;;;18.20;99.90;;;;;;5082610;28;20241;-52
2023/07/16 04:01:52;;;;;;;2.77;1.50;;;18.20;99.90;;;;;;5078019;28;20247;-48
2023/07/16 04:04:21;;;;;;;3.87;1.67;;;18.20;99.90;;;;;;5082195;28;20278;-50
2023/07/16 04:06:49;;;;;;;1.83;1.30;;;18.20;99.90;;;;;;5072797;28;20346;-48
2023/07/16 04:09:15;;;;;;;2.47;1.70;;;18.20;99.90;;;;;;5083753;28;20198;-52
2023/07/16 04:11:42;;;;;;;4.83;1.70;;;18.20;99.90;;;;;;5059508;28;20197;-53
2023/07/16 04:14:09;;;;;;;2.40;1.87;;;18.10;99.90;;;;;;5078051;28;20198;-54
2023/07/16 04:16:36;;;;;;;1.50;1.40;;;18.20;99.90;;;;;;5073715;28;20206;-52
2023/07/16 04:19:03;;;;;;;2.47;1.40;;;18.10;99.90;;;;;;5077924;28;20214;-50
2023/07/16 04:21:29;;;;;;;2.90;1.90;;;18.20;99.90;;;;;;5079307;28;20192;-52
2023/07/16 04:23:58;;;;;;;3.77;1.77;;;18.10;99.90;;;;;;5083601;28;20190;-52
2023/07/16 04:26:24;;;;;;;5.83;1.93;;;18.10;99.90;;;;;;5056880;28;20218;-50
2023/07/16 04:28:51;;;;;;;1.93;1.43;;;18.20;99.90;;;;;;5080841;28;20197;-51
2023/07/16 04:31:18;;;;;;;1.83;1.70;;;18.20;99.90;;;;;;5074860;28;20660;-51
2023/07/16 04:33:45;;;;;;;2.77;1.60;;;18.20;99.90;;;;;;5082769;28;20564;-50
2023/07/16 04:36:12;;;;;;;2.00;1.37;;;18.10;99.90;;;;;;5081823;28;20745;-52
2023/07/16 04:38:38;;;;;;;1.70;1.53;;;18.20;99.90;;;;;;5073655;28;20194;-53
2023/07/16 04:41:07;;;;;;;2.93;1.80;;;18.20;99.90;;;;;;5059277;28;20259;-51
2023/07/16 04:43:33;;;;;;;3.77;1.67;;;18.20;99.90;;;;;;5077422;28;20948;-52
2023/07/16 04:46:00;;;;;;;3.57;1.83;;;18.30;99.90;;;;;;5083301;28;20210;-48
2023/07/16 04:48:27;;;;;;;3.87;2.00;;;18.40;99.90;;;;;;5079334;28;20250;-51
2023/07/16 04:50:54;;;;;;;6.33;2.13;;;18.40;99.90;;;;;;5083293;28;20186;-49
2023/07/16 04:53:21;;;;;;;4.53;1.90;;;18.50;99.90;;;;;;5075261;28;20198;-52
2023/07/16 04:55:47;;;;;;;5.40;2.20;;;18.60;99.90;;;;;;5081319;28;20322;-53
2023/07/16 04:58:16;;;;;;;2.33;1.57;;;18.60;99.90;;;;;;5060046;28;20283;-51
2023/07/16 05:00:43;;;;;;;3.47;1.63;;;18.70;99.90;;;;;;5081146;28;20332;-51
2023/07/16 05:03:10;;;;;;;2.90;1.90;;;18.80;99.90;;;;;;5082136;28;20218;-52
2023/07/16 05:05:37;;;;;;;3.23;1.73;;;18.70;99.90;;;;;;5074847;28;20257;-54
2023/07/16 05:08:04;;;;;;;2.43;1.33;;;18.80;99.90;;;;;;5082466;28;20682;-54
2023/07/16 05:10:30;;;;;;;5.13;2.30;;;18.80;99.90;;;;;;5077656;28;20239;-50
2023/07/16 05:12:57;;;;;;;3.07;1.60;;;18.90;99.90;;;;;;5062490;28;20206;-51
2023/07/16 05:15:25;;;;;;;2.73;1.73;;;18.90;99.90;;;;;;5070511;28;20206;-49
2023/07/16 05:17:52;;;;;;;3.20;1.30;;;19.00;99.90;;;;;;5072384;28;20194;-52
2023/07/16 05:20:19;;;;;;;3.10;1.37;;;19.10;99.90;;;;;;5076477;28;20247;-49
2023/07/16 05:22:46;;;;;;;5.27;1.47;;;19.10;99.90;;;;;;5074392;28;20283;-50
2023/07/16 05:25:13;;;;;;;3.90;1.47;;;19.20;99.90;;;;;;5073516;28;20210;-50
2023/07/16 05:27:40;;;;;;;3.17;1.57;;;19.20;99.90;;;;;;5059871;28;20292;-49
2023/07/16 05:30:08;;;;;;;3.33;1.50;;;19.20;99.90;;;;;;5065170;28;20691;-50
2023/07/16 05:32:36;;;;;;;3.53;1.63;;;19.20;99.90;;;;;;5075450;28;20598;-51
2023/07/16 05:35:03;;;;;;;3.67;1.77;;;19.30;99.90;;;;;;5068562;28;20290;-49
2023/07/16 05:37:30;;;;;;;2.57;1.50;;;19.30;99.90;;;;;;5068823;28;20242;-52
2023/07/16 05:39:56;;;;;;;3.80;1.57;;;19.30;99.90;;;;;;5072518;28;20198;-50
2023/07/16 05:42:23;;;;;;;2.73;1.50;;;19.40;99.90;;;;;;5075111;28;20259;-48
2023/07/16 05:44:50;;;;;;;2.40;1.70;;;19.40;99.90;;;;;;5057825;28;20268;-51
2023/07/16 05:47:17;;;;;;;3.00;1.50;;;19.50;99.90;;;;;;5100005;28;20182;-53
2023/07/16 05:49:45;;;;;;;2.77;1.87;;;19.40;99.90;;;;;;5099179;28;20202;-48
2023/07/16 05:52:13;;;;;;;2.77;1.80;;;19.50;99.90;;;;;;5096519;28;20206;-49
2023/07/16 05:54:40;;;;;;;2.17;1.50;;;19.50;99.90;;;;;;5099465;28;20202;-52
2023/07/16 05:57:07;;;;;;;3.80;1.23;;;19.60;99.90;;;;;;5089014;28;20217;-56
2023/07/16 05:59:36;;;;;;;3.37;1.80;;;19.50;99.90;;;;;;5082586;28;20206;-50
2023/07/16 06:02:04;;;;;;;3.90;1.80;;;19.60;99.90;;;;;;5095385;28;20436;-51
2023/07/16 06:04:31;;;;;;;4.03;1.50;;;19.60;99.90;;;;;;5090569;28;20187;-45
2023/07/16 06:06:59;;;;;;;2.57;1.40;;;19.60;99.90;;;;;;5079935;28;20209;-45
2023/07/16 06:09:26;;;;;;;3.60;1.60;;;19.70;99.90;;;;;;5075081;28;20201;-51
2023/07/16 06:11:53;;;;;;;4.80;1.40;;;19.60;99.90;;;;;;5080490;28;20228;-47
2023/07/16 06:14:20;;;;;;;1.73;1.43;;;19.70;99.90;;;;;;5073465;28;20202;-53
2023/07/16 06:16:47;;;;;;;3.43;1.63;;;19.80;99.90;;;;;;5090631;28;20283;-48
2023/07/16 06:19:13;;;;;;;4.13;1.53;;;19.80;99.90;;;;;;5092960;28;20190;-55
2023/07/16 06:21:40;;;;;;;2.67;1.83;;;19.90;99.90;;;;;;5090140;28;20282;-54
2023/07/16 06:24:09;;;;;;;5.60;1.53;;;19.80;99.90;;;;;;5088434;28;20243;-52
2023/07/16 06:26:36;;;;;;;3.70;1.70;;;19.90;99.90;;;;;;5092895;28;20214;-54
2023/07/16 06:29:03;;;;;;;2.37;1.60;;;20.00;99.90;;;;;;5068231;28;20211;-49
2023/07/16 06:31:29;;;;;;;5.17;2.00;;;19.90;99.90;;;;;;5092269;28;20190;-56
2023/07/16 06:33:56;;;;;;;3.97;1.57;;;19.90;99.90;;;;;;5093290;28;20205;-44
2023/07/16 06:36:23;;;;;;;2.40;1.90;;;20.00;99.90;;;;;;5092927;28;20220;-53
2023/07/16 06:38:50;;;;;;;2.90;1.50;;;20.00;99.90;;;;;;5082426;28;20209;-46
2023/07/16 06:41:19;;;;;;;8.27;2.50;;;20.00;99.90;;;;;;5087524;28;20206;-50
2023/07/16 06:43:46;;;;;;;5.20;1.90;;;20.10;99.90;;;;;;5092934;28;20194;-51
2023/07/16 06:46:12;;;;;;;4.07;2.70;;;20.00;99.90;;;;;;5051947;28;20206;-42
2023/07/16 06:48:39;;;;;;;2.43;1.83;;;20.10;99.90;;;;;;5091941;28;20235;-50
2023/07/16 06:51:06;;;;;;;5.27;1.90;;;20.10;99.90;;;;;;5094596;28;20668;-46
2023/07/16 06:53:34;;;;;;;3.63;2.40;;;20.10;99.90;;;;;;5076997;28;20212;-56
2023/07/16 06:56:01;;;;;;;5.17;2.43;;;20.20;99.90;;;;;;5097329;28;20220;-50
2023/07/16 06:58:34;;;;;;;6.53;2.30;;;20.20;99.90;;;;;;5097217;28;20194;-48
2023/07/16 07:01:01;;;;;;;4.30;2.03;;;20.20;99.90;;;;;;5081875;28;20229;-49
2023/07/16 07:03:28;;;;;;;4.43;2.67;;;20.30;99.90;;;;;;5095134;28;20278;-48
2023/07/16 07:05:55;;;;;;;4.63;2.17;;;20.40;99.90;;;;;;5100415;28;20214;-53
2023/07/16 07:08:22;;;;;;;4.37;2.17;;;20.50;99.90;;;;;;5100698;28;20194;-50
2023/07/16 07:10:50;;;;;;;6.90;2.00;;;20.50;99.90;;;;;;5101959;28;20228;-48
2023/07/16 07:13:17;;;;;;;3.70;2.03;;;20.50;99.90;;;;;;5100732;28;20186;-47
2023/07/16 07:15:45;;;;;;;7.33;2.27;;;20.50;99.90;;;;;;5100525;28;20214;-48
2023/07/16 07:18:12;;;;;;;4.10;1.97;;;20.50;99.90;;;;;;5079910;28;20198;-45
2023/07/16 07:20:39;;;;;;;3.73;2.00;;;20.50;99.90;;;;;;5102171;28;20188;-49
2023/07/16 07:23:07;;;;;;;3.53;2.10;;;20.50;99.90;;;;;;5103373;28;20194;-47
2023/07/16 07:25:34;;;;;;;3.33;2.10;;;20.60;99.90;;;;;;5094976;28;20210;-49
2023/07/16 07:28:01;;;;;;;3.20;2.37;;;20.70;99.90;;;;;;5089080;28;20187;-46
2023/07/16 07:30:28;;;;;;;5.00;2.00;;;20.80;99.90;;;;;;5085548;28;20213;-46
2023/07/16 07:32:56;;;;;;;2.97;2.00;;;20.80;99.90;;;;;;5078215;28;20193;-47
2023/07/16 07:35:23;;;;;;;4.20;2.13;;;20.70;99.90;;;;;;5099372;28;20251;-44
2023/07/16 07:37:50;;;;;;;3.33;1.87;;;20.80;99.90;;;;;;5104629;28;20216;-52
2023/07/16 07:40:17;;;;;;;4.23;2.00;;;20.90;99.90;;;;;;5092389;28;20784;-48
2023/07/16 07:42:44;;;;;;;5.50;2.33;;;20.90;99.90;;;;;;5089688;28;20190;-48
2023/07/16 07:45:11;;;;;;;6.27;1.93;;;21.00;99.90;;;;;;5090957;28;20277;-43
2023/07/16 07:47:38;;;;;;;4.33;2.30;;;21.10;99.90;;;;;;5092039;28;20746;-44
2023/07/16 07:50:08;;;;;;;4.60;2.40;;;21.10;99.90;;;;;;5086557;28;20185;-51
2023/07/16 07:52:34;;;;;;;3.73;2.30;;;21.00;99.90;;;;;;5084396;28;20190;-51
2023/07/16 07:55:01;;;;;;;5.40;2.83;;;21.10;99.90;;;;;;5089797;28;20422;-44
2023/07/16 07:57:28;;;;;;;4.73;2.20;;;21.20;99.90;;;;;;5085285;28;20237;-50
2023/07/16 07:59:57;;;;;;;6.93;2.43;;;21.30;99.90;;;;;;5102672;28;20195;-53
2023/07/16 08:02:24;;;;;;;9.37;2.50;;;21.30;99.90;;;;;;5086858;28;20229;-50
2023/07/16 08:04:52;;;;;;;4.73;1.83;;;21.30;99.90;;;;;;5077766;28;20206;-52
2023/07/16 08:07:20;;;;;;;5.00;2.50;;;21.30;99.90;;;;;;5081994;28;20194;-49
2023/07/16 08:09:47;;;;;;;2.47;1.93;;;21.40;99.90;;;;;;5076782;28;20259;-48
2023/07/16 08:12:14;;;;;;;6.20;2.20;;;21.30;99.90;;;;;;5088201;28;20214;-46
2023/07/16 08:14:41;;;;;;;4.10;1.80;;;21.20;99.90;;;;;;5078541;28;20286;-46
2023/07/16 08:17:08;;;;;;;5.20;2.00;;;21.30;99.90;;;;;;5078081;28;20214;-59
2023/07/16 08:19:35;;;;;;;3.23;1.83;;;21.50;99.90;;;;;;5054711;28;20210;-50
2023/07/16 08:22:02;;;;;;;3.33;1.70;;;21.60;99.90;;;;;;5069635;28;20203;-58
2023/07/16 08:24:30;;;;;;;5.63;1.80;;;21.50;99.90;;;;;;5074889;28;20240;-54
2023/07/16 08:26:56;;;;;;;3.73;1.67;;;21.40;99.90;;;;;;5076897;28;20245;-54
2023/07/16 08:29:23;;;;;;;3.03;1.87;;;21.40;99.90;;;;;;5067900;28;20202;-51
2023/07/16 08:31:51;;;;;;;4.00;1.75;;;21.50;99.90;;;;;;5069374;28;20701;-58
2023/07/16 08:34:18;;;;;;;4.13;1.80;;;21.70;99.90;;;;;;5072516;28;20194;-51
2023/07/16 08:36:45;;;;;;;4.00;1.92;;;21.80;99.90;;;;;;5052903;28;20323;-51
2023/07/16 08:39:12;;;;;;;8.20;2.33;;;21.70;99.90;;;;;;5085740;28;20201;-53
2023/07/16 08:41:41;;;;;;;4.78;1.60;;;21.70;99.90;;;;;;5077805;28;20199;-58
2023/07/16 08:44:08;;;;;;;3.13;1.60;;;21.80;99.90;;;;;;5088127;28;20194;-52
2023/07/16 08:46:35;;;;;;;5.43;2.20;;;21.80;99.90;;;;;;5089224;28;20954;-57
2023/07/16 08:49:03;;;;;;;5.03;1.90;;;21.80;99.90;;;;;;5089434;28;20205;-55
2023/07/16 08:51:31;;;;;;;1.67;1.58;;;21.80;99.90;;;;;;5063630;28;20910;-48
2023/07/16 08:53:58;;;;;;;4.13;1.80;;;21.80;99.90;;;;;;5085824;28;20209;-54
2023/07/16 08:56:25;;;;;;;4.85;2.25;;;21.60;99.90;;;;;;5085638;28;20305;-45
2023/07/16 08:58:56;;;;;;;4.35;1.80;;;21.60;99.90;;;;;;5095560;28;20206;-55
2023/07/16 09:01:23;;;;;;;5.53;2.20;;;21.40;99.90;;;;;;5090706;28;20190;-47
2023/07/16 09:03:50;;;;;;;4.75;2.08;;;21.20;99.90;;;;;;5080788;28;20737;-50
2023/07/16 09:06:17;;;;;;;3.42;2.22;;;21.10;99.90;;;;;;5070042;28;20217;-47
2023/07/16 09:08:44;;;;;;;4.70;2.30;;;21.00;99.90;;;;;;5087427;28;20186;-55
2023/07/16 09:11:13;;;;;;;3.33;2.73;;;20.90;99.90;;;;;;5088155;28;20255;-46
2023/07/16 09:13:45;;;;;;;4.33;2.60;;;20.80;99.90;;;;;;5090675;28;20303;-58
2023/07/16 09:16:13;;;;;;;5.05;2.70;;;20.80;99.90;;;;;;5066474;28;20236;-51
2023/07/16 09:18:41;;;;;;;3.17;2.53;;;20.80;99.90;;;;;;5070608;28;20194;-59
2023/07/16 09:21:08;;;;;;;4.20;3.17;;;20.90;99.90;;;;;;5079510;28;20538;-52
2023/07/16 09:23:35;;;;;;;6.50;3.40;;;21.00;99.90;;;;;;5055208;28;20255;-56
2023/07/16 09:26:03;;;;;;;3.25;2.92;;;21.10;99.90;;;;;;5080669;28;20691;-56
2023/07/16 09:28:31;;;;;;;3.38;3.08;;;21.40;99.90;;;;;;5063456;28;20198;-59
2023/07/16 09:31:04;;;;;;;4.78;3.17;;;21.60;99.90;;;;;;5081051;28;20193;-59
2023/07/16 09:33:33;;;;;;;5.10;3.03;;;21.80;99.90;;;;;;5074908;28;20819;-58
2023/07/16 09:36:02;;;;;;;4.68;3.35;;;;;;;;;;5075980;28;20213;-60
2023/07/16 09:38:30;;;;;;;3.45;3.15;;;;;;;;;;5055033;28;20237;-57
2023/07/16 09:40:59;;;;;;;7.65;3.30;;;;;;;;;;5073304;28;20243;-56
2023/07/16 09:43:26;;;;;;;3.67;3.10;;;21.90;99.90;;;;;;5066711;28;20210;-49
2023/07/16 09:45:56;;;;;;;3.65;3.00;;;;;;;;;;5067909;28;20773;-59
2023/07/16 09:48:24;;;;;;;5.32;2.90;;;;;;;;;;5078308;28;20185;-51
2023/07/16 09:50:55;;;;;;;4.60;2.75;;;;;;;;;;5077363;28;20691;-54
2023/07/16 09:53:23;;;;;;;6.60;3.65;;;;;;;;;;5055046;28;20289;-53
2023/07/16 09:55:53;;;;;;;6.88;2.90;;;22.10;99.90;;;;;;5065968;28;20306;-55
2023/07/16 09:58:22;;;;;;;5.55;3.05;;;22.10;99.90;;;;;;5066428;28;20217;-56
2023/07/16 10:00:50;;;;;;;6.63;2.85;;;22.20;99.90;;;;;;5072079;28;20235;-59
2023/07/16 10:03:18;;;;;;;5.53;2.80;;;;;;;;;;5069285;28;20364;-51
2023/07/16 10:05:45;;;;;;;4.18;2.80;;;22.10;99.90;;;;;;5075556;28;20279;-59
2023/07/16 10:08:21;;;;;;;3.90;3.00;;;22.00;99.90;;;;;;5054193;28;20217;-51
2023/07/16 10:10:49;;;;;;;3.58;3.20;;;21.80;99.90;;;;;;5081453;28;20194;-59
2023/07/16 10:13:16;;;;;;;4.30;3.00;;;21.70;99.90;;;;;;5080062;28;20190;-54
2023/07/16 10:15:54;;;;;;;4.97;3.15;;;21.80;99.90;;;;;;5064763;28;20225;-59
2023/07/16 10:18:31;;;;;;;3.45;2.75;;;21.90;99.90;;;;;;5068619;28;20224;-53
2023/07/16 10:21:02;;;;;;;6.68;3.05;;;;;;;;;;5078633;28;20208;-60
2023/07/16 10:23:40;;;;;;;4.47;2.60;;;;;;;;;;5059331;28;21473;-59
2023/07/16 10:26:09;;;;;;;4.07;2.58;;;;;;;;;;5075793;28;20855;-55
2023/07/16 10:28:37;;;;;;;2.50;2.30;;;22.00;99.90;;;;;;5072318;28;20309;-60
2023/07/16 10:31:07;;;;;;;4.32;2.33;;;;;;;;;;5082474;28;20202;-59
2023/07/16 10:33:37;;;;;;;3.40;2.33;;;22.20;99.90;;;;;;5069607;28;20339;-59
2023/07/16 10:36:05;;;;;;;3.85;2.83;;;;;;;;;;5078295;28;20309;-58
2023/07/16 10:38:44;;;;;;;3.88;2.53;;;;;;;;;;5070426;28;20255;-55
2023/07/16 10:41:14;;;;;;;6.20;2.92;;;;;;;;;;5063331;28;20540;-54
2023/07/16 10:43:42;;;;;;;3.92;2.13;;;;;;;;;;5076519;28;20210;-60
2023/07/16 10:46:11;;;;;;;7.03;3.08;;;;;;;;;;5083672;28;20230;-53
2023/07/16 10:48:39;;;;;;;6.35;2.58;;;;;;;;;;5077235;28;20781;-59
2023/07/16 10:51:07;;;;;;;2.60;2.25;;;;;;;;;;5063556;28;20222;-53
2023/07/16 10:53:34;;;;;;;3.33;2.47;;;22.50;99.90;;;;;;5077071;28;20260;-49
2023/07/16 10:56:01;;;;;;;4.22;2.25;;;22.60;99.90;;;;;;5061917;28;20249;-59
2023/07/16 10:58:30;;;;;;;3.90;2.58;;;;;;;;;;5075756;28;20242;-59
2023/07/16 11:00:59;;;;;;;4.25;2.70;;;;;;;;;;5075970;28;20580;-59
2023/07/16 11:03:27;;;;;;;3.08;2.30;;;;;;;;;;5060251;28;20292;-59
2023/07/16 11:05:54;;;;;;;4.40;2.60;;;22.90;99.90;;;;;;5068680;28;20222;-47
2023/07/16 11:08:24;;;;;;;2.80;2.55;;;23.10;99.90;;;;;;5081051;28;20606;-59
2023/07/16 11:10:55;;;;;;;5.40;2.80;;;23.10;99.90;;;;;;5057856;28;20230;-50
2023/07/16 11:13:26;;;;;;;2.33;2.05;;;22.90;99.90;;;;;;5081195;28;20731;-57
2023/07/16 11:15:55;;;;;;;3.40;2.42;;;22.90;99.90;;;;;;5068927;28;20270;-51
2023/07/16 11:18:24;;;;;;;11.68;2.85;;;22.90;99.90;;;;;;5078134;28;20670;-59
2023/07/16 11:20:52;;;;;;;6.80;3.08;;;22.80;99.90;;;;;;5068621;28;20774;-50
2023/07/16 11:23:19;;;;;;;4.55;2.38;;;23.00;99.90;;;;;;5077422;28;20255;-55
2023/07/16 11:25:47;;;;;;;3.17;2.50;;;22.90;99.90;;;;;;5065913;28;20302;-50
2023/07/16 11:28:14;;;;;;;3.72;2.28;;;22.90;99.90;;;;;;5073799;28;20193;-59
2023/07/16 11:30:41;;;;;;;7.60;3.08;;;23.00;99.90;;;;;;5083628;28;20621;-50
2023/07/16 11:33:12;;;;;;;4.18;2.72;;;22.90;99.90;;;;;;5069261;28;20213;-59
2023/07/16 11:35:40;;;;;;;3.33;2.78;;;22.90;99.90;;;;;;5060032;28;20313;-52
2023/07/16 11:38:07;;;;;;;5.15;2.90;;;22.90;99.90;;;;;;5060949;28;20229;-57
2023/07/16 11:40:35;;;;;;;4.90;2.85;;;23.00;99.90;;;;;;5075198;28;20255;-56
2023/07/16 11:43:10;;;;;;;3.78;2.38;;;22.90;99.90;;;;;;5054963;28;20230;-48
2023/07/16 11:45:37;;;;;;;5.78;3.05;;;22.90;99.90;;;;;;5079287;28;20209;-59
2023/07/16 11:48:04;;;;;;;3.25;2.50;;;23.10;99.90;;;;;;5073765;28;20380;-56
2023/07/16 11:50:32;;;;;;;3.72;2.72;;;23.00;99.90;;;;;;5072648;28;20625;-59
2023/07/16 11:53:01;;;;;;;4.18;2.53;;;23.00;99.90;;;;;;5063960;28;20206;-49
2023/07/16 11:55:29;;;;;;;2.80;2.35;;;23.00;99.90;;;;;;5065882;28;20622;-51
2023/07/16 11:57:56;;;;;;;3.13;2.15;;;23.20;99.90;;;;;;5058531;28;20283;-51
2023/07/16 12:00:23;;;;;;;4.00;2.13;;;23.30;99.90;;;;;;5078604;28;20274;-46
2023/07/16 12:02:51;;;;;;;2.95;2.38;;;23.40;99.90;;;;;;5065560;28;20263;-60
2023/07/16 12:05:18;;;;;;;3.83;2.60;;;23.40;99.90;;;;;;5063970;28;20214;-48
2023/07/16 12:07:47;;;;;;;5.50;2.53;;;23.50;99.90;;;;;;5062820;28;20226;-59
2023/07/16 12:10:14;;;;;;;4.82;2.40;;;23.50;99.90;;;;;;5074822;28;20339;-52
2023/07/16 12:12:41;;;;;;;4.40;2.45;;;23.50;99.90;;;;;;5075662;28;20594;-62
2023/07/16 12:15:09;;;;;;;2.88;2.20;;;23.70;99.90;;;;;;5065187;28;21001;-48
2023/07/16 12:17:36;;;;;;;3.88;2.40;;;23.70;99.90;;;;;;5078678;28;20731;-57
2023/07/16 12:20:04;;;;;;;2.38;2.15;;;23.90;99.90;;;;;;5058312;28;20290;-53
2023/07/16 12:22:31;;;;;;;4.78;2.92;;;24.00;99.90;;;;;;5066386;28;20214;-45
2023/07/16 12:24:59;;;;;;;4.38;2.53;;;24.20;99.90;;;;;;5070968;28;20323;-58
2023/07/16 12:27:27;;;;;;;3.72;2.25;;;24.20;99.90;;;;;;5063097;28;20235;-61
2023/07/16 12:29:53;;;;;;;2.30;2.03;;;24.40;99.90;;;;;;5062256;28;20236;-54
2023/07/16 12:32:21;;;;;;;4.10;2.60;;;24.20;99.90;;;;;;5072096;28;20217;-61
2023/07/16 12:34:47;;;;;;;5.35;2.63;;;24.00;99.90;;;;;;5075717;28;20197;-55
2023/07/16 12:37:14;;;;;;;2.65;2.10;;;24.00;99.90;;;;;;5071304;28;20206;-61
2023/07/16 12:39:43;;;;;;;2.28;2.03;;;24.10;99.90;;;;;;5054974;28;20232;-52
2023/07/16 12:42:11;;;;;;;2.92;1.60;;;24.20;99.90;;;;;;5079213;28;20191;-52
2023/07/16 12:44:38;;;;;;;2.53;2.30;;;24.20;99.90;;;;;;5054220;28;20267;-47
2023/07/16 12:47:08;;;;;;;5.32;2.13;;;24.10;99.90;;;;;;5070508;28;20249;-51
2023/07/16 12:49:35;;;;;;;2.50;2.22;;;24.20;99.90;;;;;;5070460;28;20202;-56
2023/07/16 12:52:02;;;;;;;4.15;2.58;;;24.30;99.90;;;;;;5081234;28;20189;-49
2023/07/16 12:54:28;;;;;;;1.98;1.83;;;24.50;99.90;;;;;;5063620;28;20312;-60
2023/07/16 12:56:56;;;;;;;7.07;2.00;;;24.60;99.90;;;;;;5064701;28;20299;-48